createdAt,value
2023-05-10T00:00:38.887Z,100937.38
2023-05-10T00:03:06.039Z,100915.72
2023-05-10T00:05:33.436Z,100912.38
2023-05-10T00:07:59.992Z,100916.13
2023-05-10T00:10:26.575Z,100872.34
2023-05-10T00:12:53.257Z,100921.34
2023-05-10T00:15:19.977Z,100914.66
2023-05-10T00:17:46.653Z,100878.59
2023-05-10T00:20:13.482Z,100911.75
2023-05-10T00:22:40.460Z,100910.94
2023-05-10T00:25:07.837Z,100907.19
2023-05-10T00:27:34.493Z,100899.44
2023-05-10T00:30:01.247Z,100905.69
2023-05-10T00:32:27.859Z,100900.50
2023-05-10T00:34:54.487Z,100891.75
2023-05-10T00:37:21.136Z,100897.56
2023-05-10T00:39:47.754Z,100895.69
2023-05-10T00:42:14.400Z,100895.91
2023-05-10T00:44:40.988Z,100889.66
2023-05-10T00:47:08.302Z,100889.66
2023-05-10T00:49:36.721Z,100892.75
2023-05-10T00:52:04.114Z,100887.34
2023-05-10T00:54:31.291Z,100883.38
2023-05-10T00:56:58.376Z,100874.84
2023-05-10T00:59:26.464Z,100876.13
2023-05-10T01:01:53.169Z,100872.97
2023-05-10T01:04:21.147Z,100862.97
2023-05-10T01:06:47.773Z,100867.34
2023-05-10T01:09:14.425Z,100861.09
2023-05-10T01:11:41.180Z,100865.69
2023-05-10T01:14:08.111Z,100864.84
2023-05-10T01:16:38.579Z,100818.38
2023-05-10T01:19:22.991Z,100859.44
2023-05-10T01:21:59.218Z,100865.69
2023-05-10T01:24:48.564Z,100862.38
2023-05-10T01:27:19.676Z,100856.53
2023-05-10T01:30:16.187Z,100864.03
2023-05-10T01:33:16.487Z,100863.19
2023-05-10T01:35:52.817Z,100858.97
2023-05-10T01:38:34.142Z,100861.06
2023-05-10T01:41:03.940Z,100855.63
2023-05-10T01:43:48.503Z,100856.06
2023-05-10T01:46:25.792Z,100857.69
2023-05-10T01:48:56.677Z,100859.78
2023-05-10T01:51:26.916Z,100852.88
2023-05-10T01:54:01.720Z,100846.63
2023-05-10T01:56:32.044Z,100851.91
2023-05-10T01:59:01.065Z,100850.84
2023-05-10T02:01:28.749Z,100863.56
2023-05-10T02:03:58.244Z,100858.69
2023-05-10T02:06:27.041Z,100857.44
2023-05-10T02:08:55.158Z,100848.03
2023-05-10T02:11:23.089Z,100859.31
2023-05-10T02:13:52.745Z,100854.72
2023-05-10T02:16:25.116Z,100861.34
2023-05-10T02:18:53.908Z,100848.03
2023-05-10T02:21:22.456Z,100853.03
2023-05-10T02:23:53.004Z,100855.53
2023-05-10T02:26:22.858Z,100854.91
2023-05-10T02:28:50.851Z,100864.66
2023-05-10T02:31:21.929Z,100857.97
2023-05-10T02:33:50.038Z,100857.97
2023-05-10T02:36:18.093Z,100854.78
2023-05-10T02:38:47.603Z,100859.09
2023-05-10T02:41:15.670Z,100853.09
2023-05-10T02:43:44.044Z,100863.00
2023-05-10T02:46:10.771Z,100858.22
2023-05-10T02:48:37.657Z,100864.81
2023-05-10T02:51:08.159Z,100847.72
2023-05-10T02:53:37.767Z,100856.66
2023-05-10T02:56:15.595Z,100854.34
2023-05-10T02:58:45.666Z,100857.28
2023-05-10T03:01:12.424Z,100852.72
2023-05-10T03:03:39.042Z,100850.63
2023-05-10T03:06:05.897Z,100854.34
2023-05-10T03:08:32.668Z,100852.88
2023-05-10T03:11:08.451Z,100847.19
2023-05-10T03:13:39.320Z,100848.78
2023-05-10T03:16:11.104Z,100838.75
2023-05-10T03:19:14.820Z,100849.56
2023-05-10T03:21:46.820Z,100847.78
2023-05-10T03:24:16.612Z,100848.81
2023-05-10T03:26:45.332Z,100848.34
2023-05-10T03:29:14.070Z,100850.22
2023-05-10T03:31:40.964Z,100812.06
2023-05-10T03:34:08.092Z,100856.03
2023-05-10T03:36:34.751Z,100848.03
2023-05-10T03:39:01.424Z,100841.50
2023-05-10T03:41:28.213Z,100788.06
2023-05-10T03:43:54.888Z,100846.38
2023-05-10T03:46:21.541Z,100847.41
2023-05-10T03:48:48.283Z,100845.44
2023-05-10T03:51:14.897Z,100851.06
2023-05-10T03:53:41.551Z,100844.44
2023-05-10T03:56:08.124Z,100835.31
2023-05-10T03:58:34.770Z,100816.31
2023-05-10T04:01:01.342Z,100840.25
2023-05-10T04:03:28.162Z,100838.84
2023-05-10T04:06:02.275Z,100836.22
2023-05-10T04:08:29.159Z,100809.69
2023-05-10T04:10:55.837Z,100829.31
2023-05-10T04:13:22.772Z,100831.00
2023-05-10T04:15:49.530Z,100829.84
2023-05-10T04:18:16.513Z,100790.84
2023-05-10T04:20:43.146Z,100835.13
2023-05-10T04:23:09.824Z,100838.72
2023-05-10T04:25:36.618Z,100810.44
2023-05-10T04:28:04.240Z,100828.38
2023-05-10T04:30:30.823Z,100825.91
2023-05-10T04:32:57.624Z,100824.91
2023-05-10T04:35:24.373Z,100823.44
2023-05-10T04:37:52.642Z,100820.16
2023-05-10T04:40:19.399Z,100828.28
2023-05-10T04:42:48.756Z,100826.06
2023-05-10T04:45:16.723Z,100822.75
2023-05-10T04:47:45.351Z,100822.53
2023-05-10T04:50:12.340Z,100808.22
2023-05-10T04:52:39.427Z,100817.81
2023-05-10T04:55:09.210Z,100822.38
2023-05-10T04:57:36.973Z,100825.50
2023-05-10T05:00:05.910Z,100819.41
2023-05-10T05:02:32.776Z,100781.47
2023-05-10T05:05:00.179Z,100812.59
2023-05-10T05:07:27.940Z,100817.31
2023-05-10T05:09:55.187Z,100810.59
2023-05-10T05:12:21.786Z,100815.66
2023-05-10T05:14:49.648Z,100808.84
2023-05-10T05:17:24.203Z,100808.59
2023-05-10T05:19:50.906Z,100809.38
2023-05-10T05:22:27.915Z,100803.91
2023-05-10T05:24:55.644Z,100788.25
2023-05-10T05:27:25.109Z,100809.22
2023-05-10T05:29:53.878Z,100810.47
2023-05-10T05:32:21.790Z,100808.47
2023-05-10T05:34:49.022Z,100801.63
2023-05-10T05:37:17.933Z,100809.69
2023-05-10T05:39:45.726Z,100805.34
2023-05-10T05:42:14.856Z,100802.44
2023-05-10T05:44:41.537Z,100805.25
2023-05-10T05:47:09.322Z,100797.84
2023-05-10T05:49:37.583Z,100795.00
2023-05-10T05:52:04.942Z,100792.06
2023-05-10T05:54:32.495Z,100793.94
2023-05-10T05:57:01.214Z,100792.13
2023-05-10T05:59:29.077Z,100797.00
2023-05-10T06:01:55.938Z,100797.75
2023-05-10T06:04:22.964Z,100793.25
2023-05-10T06:06:49.761Z,100800.16
2023-05-10T06:09:17.716Z,100790.03
2023-05-10T06:11:44.611Z,100794.53
2023-05-10T06:14:11.375Z,100780.34
2023-05-10T06:16:38.029Z,100791.97
2023-05-10T06:19:04.902Z,100794.19
2023-05-10T06:21:31.714Z,100776.03
2023-05-10T06:23:58.361Z,100797.28
2023-05-10T06:26:28.260Z,100792.38
2023-05-10T06:28:54.933Z,100793.56
2023-05-10T06:31:22.038Z,100800.97
2023-05-10T06:33:50.159Z,100796.78
2023-05-10T06:36:17.408Z,100794.97
2023-05-10T06:38:46.690Z,100788.06
2023-05-10T06:41:13.687Z,100770.88
2023-05-10T06:43:42.359Z,100786.41
2023-05-10T06:46:09.312Z,100767.69
2023-05-10T06:48:36.110Z,100785.38
2023-05-10T06:51:02.856Z,100786.00
2023-05-10T06:53:29.489Z,100782.63
2023-05-10T06:55:56.319Z,100794.97
2023-05-10T06:58:22.961Z,100787.56
2023-05-10T07:00:50.741Z,100786.91
2023-05-10T07:03:19.487Z,100784.38
2023-05-10T07:05:50.141Z,100779.28
2023-05-10T07:08:17.743Z,100785.13
2023-05-10T07:10:44.877Z,100778.16
2023-05-10T07:13:11.989Z,100779.63
2023-05-10T07:15:39.177Z,100756.19
2023-05-10T07:18:07.547Z,100765.03
2023-05-10T07:20:34.420Z,100774.53
2023-05-10T07:23:02.480Z,100772.44
2023-05-10T07:25:29.039Z,100762.22
2023-05-10T07:27:55.670Z,100753.44
2023-05-10T07:30:22.546Z,100755.00
2023-05-10T07:32:50.314Z,100749.53
2023-05-10T07:35:17.570Z,100747.31
2023-05-10T07:37:44.456Z,100762.56
2023-05-10T07:40:12.624Z,100745.41
2023-05-10T07:42:39.306Z,100745.22
2023-05-10T07:45:06.588Z,100749.38
2023-05-10T07:47:33.372Z,100747.44
2023-05-10T07:50:00.168Z,100747.94
2023-05-10T07:52:26.958Z,100748.94
2023-05-10T07:54:55.011Z,100754.78
2023-05-10T07:57:22.363Z,100754.38
2023-05-10T07:59:50.628Z,100751.25
2023-05-10T08:02:19.427Z,100755.22
2023-05-10T08:04:47.337Z,100750.53
2023-05-10T08:07:17.830Z,100757.22
2023-05-10T08:09:46.052Z,100743.75
2023-05-10T08:12:13.084Z,100756.06
2023-05-10T08:14:44.354Z,100746.16
2023-05-10T08:17:12.374Z,100757.16
2023-05-10T08:19:39.030Z,100748.69
2023-05-10T08:22:05.699Z,100757.25
2023-05-10T08:24:39.460Z,100756.91
2023-05-10T08:27:11.703Z,100733.31
2023-05-10T08:29:49.629Z,100756.38
2023-05-10T08:32:17.632Z,100749.25
2023-05-10T08:34:45.855Z,100758.84
2023-05-10T08:37:14.588Z,100755.06
2023-05-10T08:39:42.812Z,100749.53
2023-05-10T08:42:10.508Z,100745.53
2023-05-10T08:44:38.801Z,100742.44
2023-05-10T08:47:08.297Z,100754.47
2023-05-10T08:49:36.404Z,100739.41
2023-05-10T08:52:07.641Z,100752.88
2023-05-10T08:54:36.985Z,100746.97
2023-05-10T08:57:04.654Z,100757.53
2023-05-10T08:59:34.116Z,100762.22
2023-05-10T09:02:01.721Z,100758.94
2023-05-10T09:04:31.646Z,100755.88
2023-05-10T09:07:00.448Z,100761.47
2023-05-10T09:09:32.131Z,100723.44
2023-05-10T09:11:58.918Z,100741.63
2023-05-10T09:14:27.852Z,100763.66
2023-05-10T09:16:56.682Z,100760.31
2023-05-10T09:19:23.478Z,100765.56
2023-05-10T09:21:51.111Z,100770.47
2023-05-10T09:24:19.156Z,100766.91
2023-05-10T09:26:49.906Z,100770.78
2023-05-10T09:29:17.738Z,100765.78
2023-05-10T09:31:47.820Z,100758.97
2023-05-10T09:34:21.977Z,100774.91
2023-05-10T09:37:06.952Z,100776.88
2023-05-10T09:39:34.983Z,100767.47
2023-05-10T09:42:05.227Z,100760.03
2023-05-10T09:44:33.940Z,100776.75
2023-05-10T09:47:03.903Z,100776.75
2023-05-10T09:49:31.038Z,100766.28
2023-05-10T09:52:07.959Z,100790.19
2023-05-10T09:54:35.506Z,100777.19
2023-05-10T09:57:11.306Z,100792.88
2023-05-10T09:59:44.294Z,100786.03
2023-05-10T10:02:12.826Z,100773.72
2023-05-10T10:04:44.427Z,100750.66
2023-05-10T10:07:11.220Z,100773.19
2023-05-10T10:09:38.137Z,100780.13
2023-05-10T10:12:05.741Z,100768.41
2023-05-10T10:14:32.703Z,100777.81
2023-05-10T10:19:34.278Z,100767.84
2023-05-10T10:22:01.484Z,100749.03
2023-05-10T10:24:28.945Z,100765.00
2023-05-10T10:27:00.718Z,100759.91
2023-05-10T10:29:49.428Z,100769.47
2023-05-10T10:32:43.085Z,100763.13
2023-05-10T10:35:12.833Z,100766.84
2023-05-10T10:37:48.889Z,100758.84
2023-05-10T10:40:35.150Z,100765.81
2023-05-10T10:43:31.392Z,100762.75
2023-05-10T10:46:18.424Z,100769.13
2023-05-10T10:48:50.838Z,100762.72
2023-05-10T10:51:20.422Z,100757.53
2023-05-10T10:53:50.395Z,100768.38
2023-05-10T10:56:25.954Z,100778.75
2023-05-10T10:58:53.552Z,100753.50
2023-05-10T11:01:21.624Z,100769.75
2023-05-10T11:04:21.109Z,100766.13
2023-05-10T11:07:12.339Z,100781.69
2023-05-10T11:09:44.038Z,100783.94
2023-05-10T11:12:11.855Z,100774.56
2023-05-10T11:14:41.229Z,100771.94
2023-05-10T11:17:24.580Z,100769.47
2023-05-10T11:20:08.342Z,100755.09
2023-05-10T11:22:52.185Z,100763.38
2023-05-10T11:25:19.144Z,100759.09
2023-05-10T11:27:48.247Z,100747.69
2023-05-10T11:30:17.265Z,100757.03
2023-05-10T11:32:44.721Z,100768.72
2023-05-10T11:35:12.970Z,100772.44
2023-05-10T11:37:44.794Z,100773.06
2023-05-10T11:40:14.288Z,100760.75
2023-05-10T11:42:41.305Z,100760.44
2023-05-10T11:45:08.757Z,100772.97
2023-05-10T11:47:36.863Z,100767.75
2023-05-10T11:50:04.643Z,100772.28
2023-05-10T11:52:37.326Z,100763.81
2023-05-10T11:55:04.456Z,100759.97
2023-05-10T11:57:32.301Z,100765.13
2023-05-10T11:59:59.379Z,100772.13
2023-05-10T12:02:26.489Z,100774.81
2023-05-10T12:04:53.697Z,100772.75
2023-05-10T12:07:20.449Z,100769.53
2023-05-10T12:10:18.632Z,100778.19
2023-05-10T12:12:48.397Z,100767.09
2023-05-10T12:15:25.807Z,100768.72
2023-05-10T12:17:54.772Z,100780.25
2023-05-10T12:20:23.386Z,100776.34
2023-05-10T12:22:55.654Z,100782.25
2023-05-10T12:25:24.594Z,100773.72
2023-05-10T12:27:59.284Z,100782.78
2023-05-10T12:30:28.426Z,100793.69
2023-05-10T12:33:00.190Z,100786.91
2023-05-10T12:35:27.171Z,100789.09
2023-05-10T12:37:53.831Z,100789.28
2023-05-10T12:40:21.135Z,100788.25
2023-05-10T12:42:49.748Z,100791.31
2023-05-10T12:45:18.720Z,100791.81
2023-05-10T12:47:49.010Z,100785.44
2023-05-10T12:50:19.026Z,100788.91
2023-05-10T12:52:47.323Z,100797.50
2023-05-10T12:55:15.766Z,100791.47
2023-05-10T12:57:42.840Z,100798.91
2023-05-10T13:00:10.082Z,100805.31
2023-05-10T13:02:37.864Z,100794.34
2023-05-10T13:05:04.835Z,100810.88
2023-05-10T13:07:31.493Z,100798.47
2023-05-10T13:09:59.995Z,100807.84
2023-05-10T13:12:30.686Z,100795.56
2023-05-10T13:14:57.332Z,100806.84
2023-05-10T13:17:25.304Z,100822.22
2023-05-10T13:19:52.057Z,100812.91
2023-05-10T13:22:28.744Z,100816.28
2023-05-10T13:25:03.733Z,100817.22
2023-05-10T13:27:30.487Z,100806.09
2023-05-10T13:30:00.319Z,100810.47
2023-05-10T13:32:28.408Z,100793.38
2023-05-10T13:34:58.302Z,100801.16
2023-05-10T13:37:26.276Z,100818.81
2023-05-10T13:39:52.949Z,100806.97
2023-05-10T13:42:21.577Z,100814.03
2023-05-10T13:44:51.735Z,100819.91
2023-05-10T13:47:19.256Z,100816.78
2023-05-10T13:49:45.918Z,100813.06
2023-05-10T13:52:15.806Z,100807.44
2023-05-10T13:54:42.592Z,100799.03
2023-05-10T13:57:09.512Z,100820.16
2023-05-10T13:59:36.358Z,100820.91
2023-05-10T14:02:03.555Z,100822.22
2023-05-10T14:04:30.743Z,100820.81
2023-05-10T14:06:57.684Z,100826.81
2023-05-10T14:09:24.436Z,100822.53
2023-05-10T14:11:51.212Z,100828.16
2023-05-10T14:14:21.006Z,100842.81
2023-05-10T14:16:50.582Z,100852.88
2023-05-10T14:19:20.453Z,100838.81
2023-05-10T14:21:47.457Z,100847.44
2023-05-10T14:24:14.164Z,100849.19
2023-05-10T14:26:41.799Z,100854.22
2023-05-10T14:29:11.572Z,100850.09
2023-05-10T14:31:39.424Z,100852.59
2023-05-10T14:34:06.801Z,100851.50
2023-05-10T14:36:34.572Z,100854.25
2023-05-10T14:39:02.643Z,100847.75
2023-05-10T14:41:31.211Z,100842.56
2023-05-10T14:44:05.040Z,100856.34
2023-05-10T14:46:32.047Z,100849.72
2023-05-10T14:48:59.794Z,100848.06
2023-05-10T14:51:27.448Z,100850.00
2023-05-10T14:53:54.049Z,100850.00
2023-05-10T14:56:22.342Z,100859.91
2023-05-10T14:58:49.069Z,100863.38
2023-05-10T15:01:15.789Z,100855.22
2023-05-10T15:03:43.111Z,100865.25
2023-05-10T15:06:11.013Z,100866.53
2023-05-10T15:08:37.703Z,100860.13
2023-05-10T15:11:04.491Z,100858.25
2023-05-10T15:13:31.174Z,100871.88
2023-05-10T15:15:57.790Z,100871.94
2023-05-10T15:18:24.788Z,100873.06
2023-05-10T15:20:51.596Z,100871.44
2023-05-10T15:23:18.241Z,100871.41
2023-05-10T15:25:45.140Z,100874.72
2023-05-10T15:28:11.822Z,100892.94
2023-05-10T15:30:38.720Z,100876.72
2023-05-10T15:33:05.397Z,100883.59
2023-05-10T15:35:32.701Z,100887.47
2023-05-10T15:37:59.552Z,100877.84
2023-05-10T15:40:26.375Z,100880.56
2023-05-10T15:42:53.023Z,100884.69
2023-05-10T15:45:20.914Z,100887.72
2023-05-10T15:47:50.475Z,100890.47
2023-05-10T15:50:20.110Z,100881.13
2023-05-10T15:52:46.878Z,100894.00
2023-05-10T15:55:13.676Z,100899.78
2023-05-10T15:57:41.644Z,100893.09
2023-05-10T16:00:09.964Z,100906.63
2023-05-10T16:02:37.452Z,100899.41
2023-05-10T16:05:04.853Z,100893.84
2023-05-10T16:07:31.489Z,100911.44
2023-05-10T16:09:58.138Z,100910.34
2023-05-10T16:12:24.870Z,100893.16
2023-05-10T16:14:51.620Z,100926.88
2023-05-10T16:17:20.468Z,100927.78
2023-05-10T16:19:49.651Z,100942.66
2023-05-10T16:22:17.813Z,100940.63
2023-05-10T16:24:44.432Z,100944.44
2023-05-10T16:27:12.569Z,100897.31
2023-05-10T16:29:39.228Z,100943.31
2023-05-10T16:32:05.977Z,100943.19
2023-05-10T16:34:32.660Z,100946.13
2023-05-10T16:36:59.308Z,100948.38
2023-05-10T16:39:26.047Z,100954.06
2023-05-10T16:41:54.309Z,100958.13
2023-05-10T16:44:22.419Z,100950.94
2023-05-10T16:46:51.211Z,100959.72
2023-05-10T16:49:20.774Z,100958.56
2023-05-10T16:51:50.079Z,100963.72
2023-05-10T16:54:18.671Z,100967.53
2023-05-10T16:56:45.319Z,100967.63
2023-05-10T16:59:12.000Z,100964.03
2023-05-10T17:01:38.753Z,100973.84
2023-05-10T17:04:06.508Z,100970.78
2023-05-10T17:06:33.257Z,100969.84
2023-05-10T17:09:01.073Z,100970.88
2023-05-10T17:11:29.730Z,100980.66
2023-05-10T17:13:56.356Z,100974.25
2023-05-10T17:16:23.149Z,100978.34
2023-05-10T17:18:49.960Z,100974.91
2023-05-10T17:21:19.381Z,100986.34
2023-05-10T17:23:48.242Z,100996.16
2023-05-10T17:26:15.057Z,100997.72
2023-05-10T17:28:41.723Z,100997.53
2023-05-10T17:31:08.741Z,101006.16
2023-05-10T17:33:35.407Z,101003.78
2023-05-10T17:36:02.123Z,101006.78
2023-05-10T17:38:28.874Z,101007.19
2023-05-10T17:40:55.503Z,101010.66
2023-05-10T17:43:23.493Z,100986.81
2023-05-10T17:45:52.734Z,101014.34
2023-05-10T17:48:19.499Z,101011.84
2023-05-10T17:50:46.357Z,101019.97
2023-05-10T17:53:13.039Z,101005.47
2023-05-10T17:55:41.332Z,101017.59
2023-05-10T17:58:09.600Z,101017.03
2023-05-10T18:00:36.648Z,101013.69
2023-05-10T18:03:05.906Z,101016.44
2023-05-10T18:05:36.463Z,101019.19
2023-05-10T18:08:04.413Z,101030.03
2023-05-10T18:10:31.809Z,101034.06
2023-05-10T18:12:58.601Z,100993.47
2023-05-10T18:15:26.594Z,101017.22
2023-05-10T18:17:53.290Z,101031.56
2023-05-10T18:20:19.983Z,101033.38
2023-05-10T18:22:46.588Z,101038.47
2023-05-10T18:25:13.327Z,101027.78
2023-05-10T18:27:41.099Z,101045.97
2023-05-10T18:30:10.176Z,101060.31
2023-05-10T18:32:38.472Z,101054.84
2023-05-10T18:35:08.756Z,101056.44
2023-05-10T18:37:39.060Z,101062.22
2023-05-10T18:40:09.630Z,101050.59
2023-05-10T18:42:36.428Z,101051.53
2023-05-10T18:45:04.198Z,101051.28
2023-05-10T18:47:31.135Z,101054.72
2023-05-10T18:49:57.978Z,101049.63
2023-05-10T18:52:25.041Z,101057.91
2023-05-10T18:54:51.756Z,101065.25
2023-05-10T18:57:18.449Z,101063.44
2023-05-10T18:59:45.270Z,101073.16
2023-05-10T19:02:12.090Z,101074.91
2023-05-10T19:04:39.700Z,101061.81
2023-05-10T19:07:06.406Z,101069.09
2023-05-10T19:09:33.336Z,101078.75
2023-05-10T19:12:00.545Z,101080.63
2023-05-10T19:14:27.218Z,101082.97
2023-05-10T19:16:54.513Z,101090.19
2023-05-10T19:19:21.504Z,101081.84
2023-05-10T19:21:49.115Z,101088.72
2023-05-10T19:24:15.924Z,101100.94
2023-05-10T19:26:42.711Z,101100.50
2023-05-10T19:29:09.469Z,101056.88
2023-05-10T19:31:36.193Z,101098.94
2023-05-10T19:34:03.663Z,101099.78
2023-05-10T19:36:32.590Z,101118.72
2023-05-10T19:38:59.545Z,101115.03
2023-05-10T19:41:26.244Z,101123.66
2023-05-10T19:43:52.949Z,101124.34
2023-05-10T19:46:20.365Z,101113.13
2023-05-10T19:48:49.193Z,101119.88
2023-05-10T19:51:16.023Z,101117.59
2023-05-10T19:53:44.844Z,101123.66
2023-05-10T19:56:12.965Z,101105.19
2023-05-10T19:58:40.046Z,101131.38
2023-05-10T20:01:07.901Z,101129.53
2023-05-10T20:03:36.343Z,101129.03
2023-05-10T20:06:04.350Z,101131.78
2023-05-10T20:08:31.447Z,101130.13
2023-05-10T20:10:59.213Z,101124.91
2023-05-10T20:13:28.148Z,101114.25
2023-05-10T20:15:59.527Z,101123.19
2023-05-10T20:18:27.013Z,101127.56
2023-05-10T20:20:58.827Z,101137.28
2023-05-10T20:23:25.458Z,101141.50
2023-05-10T20:25:52.826Z,101137.72
2023-05-10T20:28:24.053Z,101131.94
2023-05-10T20:30:53.853Z,101148.25
2023-05-10T20:33:22.142Z,101141.94
2023-05-10T20:35:50.157Z,101139.91
2023-05-10T20:38:18.289Z,101142.84
2023-05-10T20:40:45.041Z,101141.41
2023-05-10T20:43:12.022Z,101153.13
2023-05-10T20:45:38.752Z,101142.47
2023-05-10T20:48:05.676Z,101145.41
2023-05-10T20:50:33.483Z,101145.63
2023-05-10T20:53:01.108Z,101116.31
2023-05-10T20:55:28.369Z,101149.25
2023-05-10T20:57:55.081Z,101127.44
2023-05-10T21:00:21.827Z,101153.03
2023-05-10T21:02:48.543Z,101157.66
2023-05-10T21:05:17.115Z,101153.09
2023-05-10T21:07:43.762Z,101150.59
2023-05-10T21:10:11.447Z,101163.59
2023-05-10T21:12:38.112Z,101158.59
2023-05-10T21:15:05.143Z,101165.31
2023-05-10T21:17:31.750Z,101163.03
2023-05-10T21:19:58.408Z,101169.97
2023-05-10T21:22:25.193Z,101157.84
2023-05-10T21:24:51.887Z,101154.97
2023-05-10T21:27:18.561Z,101165.84
2023-05-10T21:29:45.858Z,101169.03
2023-05-10T21:32:12.667Z,101113.78
2023-05-10T21:34:39.381Z,101173.06
2023-05-10T21:37:06.058Z,101165.94
2023-05-10T21:39:32.846Z,101172.22
2023-05-10T21:42:00.316Z,101169.72
2023-05-10T21:44:27.018Z,101166.84
2023-05-10T21:46:53.659Z,101163.94
2023-05-10T21:49:20.425Z,101159.34
2023-05-10T21:51:47.377Z,101168.13
2023-05-10T21:54:14.066Z,101167.06
2023-05-10T21:56:40.839Z,101171.47
2023-05-10T21:59:07.543Z,101174.19
2023-05-10T22:01:36.996Z,101163.53
2023-05-10T22:04:04.003Z,101172.72
2023-05-10T22:06:30.879Z,101171.88
2023-05-10T22:08:57.659Z,101168.94
2023-05-10T22:11:24.309Z,101152.19
2023-05-10T22:13:50.983Z,101158.91
2023-05-10T22:16:17.821Z,101153.06
2023-05-10T22:18:44.533Z,101157.84
2023-05-10T22:21:11.340Z,101154.28
2023-05-10T22:23:37.910Z,101157.44
2023-05-10T22:26:04.745Z,101138.22
2023-05-10T22:28:31.422Z,101139.69
2023-05-10T22:30:58.070Z,101160.34
2023-05-10T22:33:24.692Z,101148.25
2023-05-10T22:35:51.400Z,101152.00
2023-05-10T22:38:18.056Z,101155.13
2023-05-10T22:40:44.684Z,101158.06
2023-05-10T22:43:11.909Z,101155.53
2023-05-10T22:45:38.816Z,101161.41
2023-05-10T22:48:05.687Z,101166.44
2023-05-10T22:50:33.550Z,101170.66
2023-05-10T22:53:00.118Z,101168.97
2023-05-10T22:55:26.782Z,101166.72
2023-05-10T22:57:53.845Z,101169.84
2023-05-10T23:00:20.918Z,101171.13
2023-05-10T23:02:47.651Z,101173.91
2023-05-10T23:05:14.363Z,101179.16
2023-05-10T23:07:41.660Z,101179.41
2023-05-10T23:10:08.606Z,101190.72
2023-05-10T23:12:35.212Z,101182.38
2023-05-10T23:15:01.838Z,101183.03
2023-05-10T23:17:28.588Z,101188.25
2023-05-10T23:19:55.264Z,101190.78
2023-05-10T23:22:21.993Z,101193.13
2023-05-10T23:24:48.605Z,101171.00
2023-05-10T23:27:15.272Z,101196.47
2023-05-10T23:29:41.953Z,101197.91
2023-05-10T23:32:08.667Z,101168.50
2023-05-10T23:34:35.388Z,101199.56
2023-05-10T23:37:02.459Z,101205.56
2023-05-10T23:39:29.167Z,101187.84
2023-05-10T23:41:55.952Z,101165.13
2023-05-10T23:44:22.636Z,101201.66
2023-05-10T23:46:49.245Z,101204.44
2023-05-10T23:49:15.860Z,101207.81
2023-05-10T23:51:42.601Z,101201.56
2023-05-10T23:54:09.334Z,101204.91
2023-05-10T23:56:36.124Z,101202.81
2023-05-10T23:59:03.070Z,101206.78
